Time;durP1;ratioP1;P1;durP2;ratioP2;P2;SDS_P1;SDS_P2;PMS_P1;PMS_P2;Temp;Humidity;BMP_temperature;BMP_pressure;BME280_temperature;BME280_humidity;BME280_pressure;Samples;Min_cycle;Max_cycle;Signal;HPM_P1;HPM_P2
2022/04/05 00:01:23;;;;;;;;;9.25;7.50;;;;;9.02;62.08;100581.00;5057815;28;45371;-81
2022/04/05 00:03:49;;;;;;;;;6.00;6.00;;;;;8.99;62.41;100573.16;5062424;27;45553;-80
2022/04/05 00:06:14;;;;;;;;;9.50;9.50;;;;;8.99;62.70;100583.69;5079125;28;45402;-80
2022/04/05 00:08:40;;;;;;;;;11.75;9.75;;;;;9.00;62.92;100580.19;5078995;28;45474;-80
2022/04/05 00:11:05;;;;;;;;;9.00;6.00;;;;;9.04;62.83;100588.91;5078588;28;45487;-80
2022/04/05 00:13:31;;;;;;;;;8.00;6.25;;;;;9.00;63.41;100589.81;5072834;28;46112;-80
2022/04/05 00:15:57;;;;;;;;;8.00;6.00;;;;;8.99;63.26;100582.84;5058853;28;45421;-80
2022/04/05 00:18:22;;;;;;;;;10.25;10.25;;;;;9.02;63.70;100594.19;5038876;28;45397;-82
2022/04/05 00:20:48;;;;;;;;;9.50;7.50;;;;;9.04;63.38;100583.63;5057358;28;45444;-80
2022/04/05 00:23:14;;;;;;;;;10.75;10.50;;;;;9.03;64.44;100579.25;5055898;28;46031;-80
2022/04/05 00:25:40;;;;;;;;;15.00;10.25;;;;;9.01;64.81;100581.03;5057785;28;45439;-80
2022/04/05 00:28:05;;;;;;;;;11.00;8.50;;;;;8.95;64.94;100576.72;5057950;28;45466;-80
2022/04/05 00:30:30;;;;;;;;;10.25;7.75;;;;;9.01;64.85;100581.03;5057097;28;45424;-78
2022/04/05 00:32:57;;;;;;;;;6.00;6.00;;;;;8.96;65.41;100589.00;5056481;28;48431;-79
2022/04/05 00:35:23;;;;;;;;;9.00;5.50;;;;;8.88;65.32;100580.31;5056053;28;45553;-80
2022/04/05 00:37:49;;;;;;;;;8.00;6.25;;;;;8.92;65.30;100587.28;5039094;28;45465;-81
2022/04/05 00:40:15;;;;;;;;;9.50;9.50;;;;;8.93;65.52;100581.13;5055256;28;45534;-80
2022/04/05 00:42:41;;;;;;;;;10.00;6.75;;;;;8.97;65.14;100590.72;5061623;28;45683;-80
2022/04/05 00:45:09;;;;;;;;;8.00;7.75;;;;;8.93;66.04;100586.41;5063934;28;45630;-82
2022/04/05 00:47:35;;;;;;;;;6.50;6.50;;;;;8.95;65.44;100581.13;5057171;28;45320;-81
2022/04/05 00:50:03;;;;;;;;;11.00;7.25;;;;;8.93;66.36;100582.88;5056237;28;45309;-80
2022/04/05 00:52:28;;;;;;;;;9.00;9.00;;;;;8.94;66.11;100580.22;5055163;28;45992;-81
2022/04/05 00:54:56;;;;;;;;;11.75;8.00;;;;;8.95;66.65;100579.34;5038298;28;45414;-80
2022/04/05 00:57:23;;;;;;;;;11.75;6.75;;;;;8.90;66.85;100578.53;5039595;28;45470;-80
2022/04/05 01:00:03;;;;;;;;;4.25;4.25;;;;;8.88;67.07;100565.38;5056372;28;45344;-80
2022/04/05 01:02:34;;;;;;;;;7.00;6.75;;;;;8.95;66.21;100576.72;5067144;28;45604;-79
2022/04/05 01:05:00;;;;;;;;;4.50;4.50;;;;;8.95;66.93;100570.56;5079554;27;45327;-80
2022/04/05 01:07:27;;;;;;;;;6.25;6.25;;;;;8.91;66.44;100564.44;5075983;28;45359;-80
2022/04/05 01:09:56;;;;;;;;;10.00;5.50;;;;;8.97;67.38;100574.91;5071359;28;45423;-80
2022/04/05 01:12:22;;;;;;;;;10.75;8.25;;;;;8.98;67.22;100576.66;5060366;28;45281;-80
2022/04/05 01:14:48;;;;;;;;;9.50;7.00;;;;;8.96;67.07;100570.56;5060019;28;45423;-80
2022/04/05 01:17:15;;;;;;;;;8.00;8.00;;;;;8.93;67.54;100559.16;5055526;28;45365;-80
2022/04/05 01:19:40;;;;;;;;;9.00;6.50;;;;;8.92;68.33;100563.56;5056472;28;45336;-80
2022/04/05 01:22:05;;;;;;;;;8.00;8.00;;;;;8.91;68.06;100564.44;5069606;28;45382;-80
2022/04/05 01:24:32;;;;;;;;;8.00;8.00;;;;;8.89;68.81;100555.69;5077697;27;45385;-80
2022/04/05 01:27:01;;;;;;;;;10.00;9.00;;;;;8.90;68.25;100562.72;5038830;28;45352;-81
2022/04/05 01:29:28;;;;;;;;;9.00;9.00;;;;;8.88;69.43;100553.94;5056202;28;45395;-80
2022/04/05 01:31:58;;;;;;;;;10.75;8.00;;;;;8.88;68.69;100560.13;5055157;28;46239;-80
2022/04/05 01:34:26;;;;;;;;;6.00;6.00;;;;;8.87;68.69;100557.50;5056487;28;45572;-79
2022/04/05 01:37:00;;;;;;;;;6.50;5.00;;;;;8.86;70.03;100547.84;5055134;28;45343;-79
2022/04/05 01:39:28;;;;;;;;;8.00;8.00;;;;;8.84;69.22;100542.59;5056919;28;45434;-80
2022/04/05 01:41:56;;;;;;;;;9.75;7.00;;;;;8.85;69.22;100551.34;5056073;28;47007;-79
2022/04/05 01:44:22;;;;;;;;;12.25;9.25;;;;;8.82;69.99;100543.50;5065275;28;45386;-78
2022/04/05 01:46:48;;;;;;;;;10.00;9.75;;;;;8.85;70.35;100543.44;5063663;28;45438;-80
2022/04/05 01:49:14;;;;;;;;;8.25;6.75;;;;;8.82;70.36;100535.59;5056521;28;45555;-80
2022/04/05 01:51:40;;;;;;;;;5.50;5.50;;;;;8.79;70.87;100533.88;5055148;28;46115;-79
2022/04/05 01:54:08;;;;;;;;;9.75;7.50;;;;;8.84;70.59;100544.38;5056113;28;45387;-79
2022/04/05 01:56:43;;;;;;;;;9.00;9.00;;;;;8.84;70.80;100542.59;5055713;28;45478;-80
2022/04/05 01:59:10;;;;;;;;;9.75;6.75;;;;;8.83;70.68;100538.19;5054090;28;45362;-80
2022/04/05 02:01:35;;;;;;;;;14.50;12.50;;;;;8.84;70.46;100545.22;5055744;28;46193;-80
2022/04/05 02:04:01;;;;;;;;;12.25;7.00;;;;;8.83;70.90;100542.59;5056077;28;45483;-81
2022/04/05 02:06:27;;;;;;;;;12.25;8.75;;;;;8.80;70.74;100540.88;5055238;28;45411;-80
2022/04/05 02:08:52;;;;;;;;;6.75;4.50;;;;;8.80;71.17;100538.25;5054837;28;45419;-80
2022/04/05 02:11:18;;;;;;;;;5.25;5.00;;;;;8.82;71.26;100538.22;5054522;28;45450;-81
2022/04/05 02:13:43;;;;;;;;;6.00;6.00;;;;;8.76;71.21;100527.75;5048382;28;45384;-80
2022/04/05 02:16:08;;;;;;;;;9.00;9.00;;;;;8.77;70.71;100529.50;5058620;28;45438;-80
2022/04/05 02:18:38;;;;;;;;;11.25;7.00;;;;;8.83;71.44;100532.06;5055133;28;45459;-80
2022/04/05 02:21:05;;;;;;;;;10.75;8.25;;;;;8.82;70.58;100538.22;5055413;28;45332;-80
2022/04/05 02:23:31;;;;;;;;;7.00;6.00;;;;;8.84;70.73;100539.09;5054223;28;45346;-80
2022/04/05 02:25:57;;;;;;;;;12.75;9.00;;;;;8.73;71.65;100515.50;5056668;28;45458;-80
2022/04/05 02:28:23;;;;;;;;;13.75;9.25;;;;;8.82;71.51;100539.09;5078316;28;45326;-79
2022/04/05 02:30:49;;;;;;;;;10.50;7.00;;;;;8.84;70.90;100542.59;5076476;28;45484;-80
2022/04/05 02:33:15;;;;;;;;;9.25;7.00;;;;;8.83;70.71;100539.97;5062795;28;45533;-80
2022/04/05 02:35:40;;;;;;;;;9.50;6.75;;;;;8.82;71.04;100532.94;5038345;28;45533;-80
2022/04/05 02:38:06;;;;;;;;;9.00;7.00;;;;;8.85;70.93;100536.44;5056757;28;45466;-81
2022/04/05 02:40:31;;;;;;;;;7.00;7.00;;;;;8.86;71.53;100534.66;5054589;28;45636;-80
2022/04/05 02:42:57;;;;;;;;;7.00;7.00;;;;;8.89;70.68;100534.63;5038532;28;45446;-80
2022/04/05 02:45:22;;;;;;;;;4.00;4.00;;;;;8.79;71.24;100509.28;5062343;28;45501;-80
2022/04/05 02:47:48;;;;;;;;;14.50;8.75;;;;;8.88;70.98;100527.59;5055799;28;45500;-81
2022/04/05 02:50:17;;;;;;;;;8.00;5.00;;;;;8.88;71.18;100531.13;5055683;28;45585;-80
2022/04/05 02:52:46;;;;;;;;;12.25;9.75;;;;;8.81;72.00;100518.03;5057631;28;45660;-81
2022/04/05 02:55:12;;;;;;;;;9.25;7.00;;;;;8.87;71.71;100525.88;5056181;28;45419;-81
2022/04/05 02:57:38;;;;;;;;;7.00;7.00;;;;;8.87;72.03;100531.13;5054337;28;45513;-80
2022/04/05 03:00:07;;;;;;;;;4.50;4.00;;;;;8.89;71.96;100529.34;5053961;28;46130;-80
2022/04/05 03:02:34;;;;;;;;;6.50;6.50;;;;;8.82;72.45;100518.03;5053913;28;45514;-81
2022/04/05 03:05:05;;;;;;;;;9.00;6.75;;;;;8.85;72.02;100519.72;5057701;28;45518;-79
2022/04/05 03:07:30;;;;;;;;;9.25;9.25;;;;;8.82;72.07;100520.66;5057021;28;45688;-81
2022/04/05 03:09:56;;;;;;;;;12.00;10.00;;;;;8.81;72.32;100521.53;5057987;28;46518;-80
2022/04/05 03:12:21;;;;;;;;;8.50;6.75;;;;;8.79;72.46;100509.28;5058435;28;45344;-79
2022/04/05 03:14:47;;;;;;;;;8.50;8.50;;;;;8.81;72.93;100518.03;5061623;28;45328;-80
2022/04/05 03:17:14;;;;;;;;;6.25;6.00;;;;;8.82;73.30;100509.22;5061971;28;45552;-80
2022/04/05 03:19:39;;;;;;;;;9.00;6.75;;;;;8.80;72.92;100513.66;5059968;28;46260;-80
2022/04/05 03:22:11;;;;;;;;;12.25;12.00;;;;;8.77;73.65;100511.06;5056445;28;45511;-80
2022/04/05 03:24:36;;;;;;;;;5.50;5.50;;;;;8.74;73.58;100509.34;5046685;28;45469;-79
2022/04/05 03:27:02;;;;;;;;;5.00;5.00;;;;;8.68;73.85;100501.50;5058401;28;45429;-80
2022/04/05 03:29:27;;;;;;;;;8.00;8.00;;;;;8.69;74.23;100501.50;5058989;28;47290;-79
2022/04/05 03:31:54;;;;;;;;;7.25;5.50;;;;;8.64;74.24;100490.16;5057729;28;45334;-80
2022/04/05 03:34:20;;;;;;;;;6.50;6.25;;;;;8.71;74.59;100507.63;5057530;28;45485;-80
2022/04/05 03:36:45;;;;;;;;;9.00;6.25;;;;;8.68;74.78;100499.78;5038473;28;45520;-80
2022/04/05 03:39:13;;;;;;;;;6.00;6.00;;;;;8.69;75.45;100496.22;5056789;28;46283;-80
2022/04/05 03:41:39;;;;;;;;;8.50;6.75;;;;;8.67;75.21;100498.00;5057507;28;45470;-80
2022/04/05 03:44:05;;;;;;;;;8.75;7.00;;;;;8.66;75.63;100491.00;5058937;28;45484;-80
2022/04/05 03:46:31;;;;;;;;;6.75;6.75;;;;;8.62;75.59;100489.28;5063678;28;45486;-80
2022/04/05 03:48:57;;;;;;;;;10.50;10.50;;;;;8.61;76.09;100491.94;5059091;28;46285;-80
2022/04/05 03:51:22;;;;;;;;;7.00;7.00;;;;;8.63;76.10;100496.31;5058874;28;45466;-80
2022/04/05 03:53:48;;;;;;;;;5.00;5.00;;;;;8.58;76.16;100487.59;5056781;28;45621;-80
2022/04/05 03:56:13;;;;;;;;;11.00;8.00;;;;;8.63;76.41;100495.44;5056633;28;45594;-81
2022/04/05 03:58:40;;;;;;;;;5.50;4.00;;;;;8.61;77.28;100492.81;5056854;28;45404;-80
2022/04/05 04:01:07;;;;;;;;;9.00;5.50;;;;;8.58;77.32;100482.34;5057136;28;45445;-82
2022/04/05 04:03:35;;;;;;;;;9.00;7.00;;;;;8.57;78.06;100491.13;5056370;28;45367;-79
2022/04/05 04:06:01;;;;;;;;;6.25;4.50;;;;;8.56;78.54;100478.81;5056938;28;45353;-80
2022/04/05 04:08:26;;;;;;;;;6.00;5.25;;;;;8.60;78.80;100483.16;5055990;28;45515;-80
2022/04/05 04:10:52;;;;;;;;;6.00;4.00;;;;;8.59;78.32;100486.69;5055992;28;45729;-80
2022/04/05 04:13:18;;;;;;;;;7.00;5.25;;;;;8.60;78.34;100490.22;5060003;28;45332;-80
2022/04/05 04:15:44;;;;;;;;;9.00;8.00;;;;;8.59;79.46;100481.41;5058723;28;46041;-80
2022/04/05 04:18:10;;;;;;;;;6.00;6.00;;;;;8.55;78.71;100482.38;5062049;28;46373;-80
2022/04/05 04:20:35;;;;;;;;;5.50;5.00;;;;;8.53;78.88;100479.75;5060419;28;45383;-80
2022/04/05 04:23:01;;;;;;;;;6.75;6.75;;;;;8.56;79.23;100473.56;5059419;28;45324;-80
2022/04/05 04:25:26;;;;;;;;;8.00;7.00;;;;;8.56;78.71;100484.09;5059830;28;45455;-81
2022/04/05 04:27:51;;;;;;;;;5.50;5.50;;;;;8.56;78.73;100481.47;5056592;28;47115;-80
2022/04/05 04:30:17;;;;;;;;;9.25;6.25;;;;;8.53;78.64;100479.75;5056940;28;45463;-80
2022/04/05 04:32:42;;;;;;;;;10.50;7.00;;;;;8.57;78.94;100477.09;5056454;28;45451;-80
2022/04/05 04:35:08;;;;;;;;;9.50;4.50;;;;;8.58;79.43;100482.34;5055457;28;45451;-81
2022/04/05 04:37:34;;;;;;;;;11.50;8.00;;;;;8.62;78.91;100485.78;5054897;28;45591;-76
2022/04/05 04:40:00;;;;;;;;;9.25;6.50;;;;;8.62;78.99;100484.00;5055129;28;45490;-76
2022/04/05 04:42:25;;;;;;;;;7.00;7.00;;;;;8.62;79.84;100491.06;5072847;28;45461;-76
2022/04/05 04:44:51;;;;;;;;;6.75;6.25;;;;;8.60;79.44;100488.44;5070965;27;45568;-75
2022/04/05 04:47:17;;;;;;;;;9.00;7.00;;;;;8.60;79.67;100479.69;5055627;28;45415;-75
2022/04/05 04:49:43;;;;;;;;;12.75;8.00;;;;;8.58;79.60;100482.34;5056223;28;45378;-75
2022/04/05 04:52:09;;;;;;;;;6.00;6.00;;;;;8.63;79.31;100485.75;5036121;28;45489;-76
2022/04/05 04:54:35;;;;;;;;;10.00;10.00;;;;;8.64;79.75;100473.44;5054262;28;45491;-76
2022/04/05 04:57:00;;;;;;;;;6.75;6.00;;;;;8.62;79.76;100481.38;5055357;28;45513;-74
2022/04/05 04:59:25;;;;;;;;;6.25;6.25;;;;;8.61;79.70;100476.13;5055510;28;45538;-75
2022/04/05 05:01:51;;;;;;;;;9.50;9.50;;;;;8.62;80.02;100476.09;5037401;28;45426;-75
2022/04/05 05:04:16;;;;;;;;;9.00;7.00;;;;;8.63;79.94;100475.22;5037616;28;45433;-75
2022/04/05 05:06:42;;;;;;;;;9.00;9.00;;;;;8.57;79.97;100471.81;5064649;28;45450;-76
2022/04/05 05:09:07;;;;;;;;;9.25;6.75;;;;;8.54;80.88;100467.44;5054560;28;45340;-77
2022/04/05 05:11:32;;;;;;;;;9.50;7.00;;;;;8.57;80.10;100471.81;5056121;28;45758;-76
2022/04/05 05:13:58;;;;;;;;;10.00;7.75;;;;;8.58;81.21;100471.78;5055668;28;45371;-75
2022/04/05 05:16:23;;;;;;;;;12.50;8.00;;;;;8.56;80.07;100476.19;5055940;28;46178;-80
2022/04/05 05:18:48;;;;;;;;;6.75;4.75;;;;;8.56;81.50;100473.56;5042420;28;45350;-82
2022/04/05 05:21:14;;;;;;;;;11.50;9.75;;;;;8.52;81.27;100471.88;5069500;28;45485;-81
2022/04/05 05:23:39;;;;;;;;;4.50;4.50;;;;;8.51;81.76;100470.13;5058164;28;45698;-76
2022/04/05 05:26:05;;;;;;;;;11.50;9.75;;;;;8.52;81.67;100471.88;5054192;28;46098;-76
2022/04/05 05:28:30;;;;;;;;;13.00;9.75;;;;;8.49;82.18;100472.78;5054710;28;45553;-76
2022/04/05 05:30:55;;;;;;;;;0.50;0.00;;;;;8.51;82.08;100480.66;5055480;28;45625;-75
2022/04/05 05:33:21;;;;;;;;;6.50;6.00;;;;;8.52;82.71;100483.28;5036830;28;45541;-76
2022/04/05 05:35:47;;;;;;;;;9.75;8.00;;;;;8.52;82.25;100482.41;5036421;28;45350;-76
2022/04/05 05:38:12;;;;;;;;;9.00;7.00;;;;;8.50;82.03;100479.81;5053267;28;45344;-77
2022/04/05 05:40:38;;;;;;;;;9.50;9.50;;;;;8.50;82.49;100468.38;5055056;28;45277;-77
2022/04/05 05:43:04;;;;;;;;;12.00;9.50;;;;;8.51;82.54;100475.38;5055243;28;45269;-75
2022/04/05 05:45:33;;;;;;;;;12.25;9.00;;;;;8.53;82.46;100465.69;5056810;28;45527;-76
2022/04/05 05:47:59;;;;;;;;;14.00;10.25;;;;;8.53;82.40;100477.13;5055348;28;45443;-76
2022/04/05 05:50:25;;;;;;;;;7.25;7.25;;;;;8.55;82.12;100477.09;5056002;28;45513;-75
2022/04/05 05:52:53;;;;;;;;;9.25;6.50;;;;;8.56;82.95;100470.91;5053947;28;45498;-75
2022/04/05 05:55:20;;;;;;;;;10.00;9.75;;;;;8.58;82.28;100471.78;5055553;28;46249;-76
2022/04/05 05:57:46;;;;;;;;;11.50;6.00;;;;;8.57;82.49;100470.03;5054715;28;45434;-81
2022/04/05 06:00:23;;;;;;;;;12.25;9.75;;;;;8.59;82.13;100478.78;5035813;28;45565;-78
2022/04/05 06:02:55;;;;;;;;;9.75;7.00;;;;;8.54;82.39;100481.47;5035603;28;45403;-81
2022/04/05 06:05:21;;;;;;;;;4.75;4.75;;;;;8.61;82.23;100492.81;5043588;28;46014;-81
2022/04/05 06:07:47;;;;;;;;;11.50;9.00;;;;;8.61;81.89;100479.66;5063568;28;45426;-80
2022/04/05 06:10:13;;;;;;;;;12.50;6.75;;;;;8.65;81.82;100489.25;5039543;28;45508;-81
2022/04/05 06:12:45;;;;;;;;;7.00;7.00;;;;;8.62;82.36;100480.50;5056231;28;45257;-81
2022/04/05 06:15:12;;;;;;;;;9.75;3.50;;;;;8.68;82.54;100488.34;5057306;28;46724;-80
2022/04/05 06:17:42;;;;;;;;;9.75;6.75;;;;;8.69;82.03;100496.22;5059047;28;45405;-81
2022/04/05 06:20:09;;;;;;;;;6.50;6.50;;;;;8.73;81.90;100496.19;5058747;28;45617;-81
2022/04/05 06:22:51;;;;;;;;;9.25;8.50;;;;;8.74;82.27;100504.06;5035459;28;45525;-82
2022/04/05 06:25:19;;;;;;;;;1.00;1.00;;;;;8.75;83.10;100504.94;5037967;28;45521;-81
2022/04/05 06:27:44;;;;;;;;;9.50;6.00;;;;;8.72;83.10;100508.50;5054369;28;45469;-81
2022/04/05 06:30:11;;;;;;;;;5.50;5.50;;;;;8.76;83.69;100515.47;5054273;28;45494;-80
2022/04/05 06:32:37;;;;;;;;;9.25;9.25;;;;;8.75;83.38;100515.50;5054179;28;45347;-81
2022/04/05 06:35:04;;;;;;;;;9.00;9.00;;;;;8.77;83.73;100521.59;5059182;28;45932;-81
2022/04/05 06:37:29;;;;;;;;;7.50;5.00;;;;;8.69;83.63;100506.75;5075942;27;45316;-80
2022/04/05 06:39:54;;;;;;;;;8.00;8.00;;;;;8.77;83.79;100509.28;5080209;28;45371;-82
2022/04/05 06:42:21;;;;;;;;;5.25;5.25;;;;;8.82;83.39;100519.75;5079183;28;45275;-80
2022/04/05 06:44:47;;;;;;;;;7.50;7.50;;;;;8.84;84.40;100520.63;5076692;28;46269;-81
2022/04/05 06:47:12;;;;;;;;;7.00;6.50;;;;;8.82;84.45;100512.75;5059652;28;45538;-80
2022/04/05 06:49:40;;;;;;;;;6.75;5.50;;;;;8.85;84.41;100522.34;5069327;28;45374;-80
2022/04/05 06:52:05;;;;;;;;;7.00;6.25;;;;;8.86;84.34;100516.22;5027747;28;45502;-81
2022/04/05 06:54:30;;;;;;;;;9.25;6.25;;;;;8.90;84.73;100520.56;5049350;28;45536;-80
2022/04/05 06:56:56;;;;;;;;;7.25;7.25;;;;;8.94;84.61;100511.69;5058924;28;45401;-81
2022/04/05 06:59:21;;;;;;;;;9.25;6.50;;;;;8.96;84.29;100504.66;5057873;28;45444;-82
2022/04/05 07:01:46;;;;;;;;;9.75;8.25;;;;;8.99;84.02;100515.16;5058751;28;45603;-80
2022/04/05 07:04:12;;;;;;;;;9.25;8.50;;;;;9.02;84.18;100503.69;5065093;28;45401;-79
2022/04/05 07:06:37;;;;;;;;;4.00;4.00;;;;;9.04;84.18;100502.75;5083032;28;45711;-81
2022/04/05 07:09:05;;;;;;;;;10.50;10.50;;;;;9.06;83.94;100505.38;5081769;27;45370;-80
2022/04/05 07:11:31;;;;;;;;;4.25;4.25;;;;;9.11;83.82;100507.94;5076847;27;45490;-80
2022/04/05 07:13:56;;;;;;;;;5.50;3.75;;;;;9.15;83.76;100507.00;5066165;28;45491;-80
2022/04/05 07:16:22;;;;;;;;;4.00;4.00;;;;;9.19;83.94;100506.06;5074007;28;45405;-78
2022/04/05 07:18:49;;;;;;;;;6.75;4.50;;;;;9.23;83.08;100510.38;5057577;28;45358;-79
2022/04/05 07:21:15;;;;;;;;;6.00;6.00;;;;;9.25;83.64;100511.25;5061478;28;45441;-78
2022/04/05 07:23:41;;;;;;;;;7.00;5.75;;;;;9.28;83.04;100500.66;5058958;28;45444;-78
2022/04/05 07:26:07;;;;;;;;;4.00;4.00;;;;;9.34;83.06;100505.81;5057676;28;45359;-78
2022/04/05 07:28:32;;;;;;;;;4.25;4.25;;;;;9.37;82.94;100495.22;5057106;28;45535;-78
2022/04/05 07:30:58;;;;;;;;;6.00;5.00;;;;;9.43;82.91;100500.41;5059870;28;45366;-78
2022/04/05 07:33:24;;;;;;;;;4.25;4.25;;;;;9.46;83.06;100499.50;5039516;28;45612;-79
2022/04/05 07:35:50;;;;;;;;;6.50;6.50;;;;;9.43;82.99;100489.84;5056967;28;45388;-80
2022/04/05 07:38:15;;;;;;;;;6.75;5.25;;;;;9.55;83.65;100496.69;5039574;28;45499;-78
2022/04/05 07:40:49;;;;;;;;;9.75;8.50;;;;;9.67;82.97;100498.25;5053230;28;45368;-79
2022/04/05 07:43:17;;;;;;;;;10.00;6.00;;;;;9.72;82.68;100501.66;5052175;28;45429;-78
2022/04/05 07:45:42;;;;;;;;;6.00;6.00;;;;;9.75;82.76;100506.03;5057164;28;45406;-79
2022/04/05 07:48:08;;;;;;;;;11.75;8.75;;;;;9.65;82.60;100492.13;5055156;28;45569;-78
2022/04/05 07:50:33;;;;;;;;;6.00;6.00;;;;;9.76;82.46;100508.66;5060246;28;45337;-80
2022/04/05 07:52:59;;;;;;;;;6.75;4.75;;;;;9.81;81.98;100512.94;5038236;28;46027;-82
2022/04/05 07:55:24;;;;;;;;;7.00;6.50;;;;;9.83;82.62;100513.81;5056778;28;45575;-80
2022/04/05 07:57:49;;;;;;;;;6.50;5.25;;;;;9.85;82.71;100506.72;5056466;28;45500;-76
2022/04/05 08:00:15;;;;;;;;;10.00;9.00;;;;;9.77;82.73;100497.16;5057961;28;45391;-77
2022/04/05 08:02:42;;;;;;;;;10.75;7.75;;;;;9.92;82.79;100508.38;5055606;28;46091;-79
2022/04/05 08:05:07;;;;;;;;;7.00;6.75;;;;;9.99;82.50;100503.81;5056591;28;45435;-79
2022/04/05 08:07:33;;;;;;;;;9.00;7.00;;;;;9.98;82.07;100502.13;5055202;28;45510;-74
2022/04/05 08:09:58;;;;;;;;;6.00;4.00;;;;;10.02;82.15;100499.38;5055541;28;45541;-74
2022/04/05 08:12:24;;;;;;;;;10.00;6.50;;;;;9.92;81.72;100482.81;5055624;28;46308;-73
2022/04/05 08:14:49;;;;;;;;;2.50;2.50;;;;;10.09;81.80;100508.91;5055442;28;45416;-76
2022/04/05 08:17:15;;;;;;;;;1.75;1.75;;;;;10.10;81.46;100505.38;5055035;28;45372;-73
2022/04/05 08:19:40;;;;;;;;;14.25;8.00;;;;;10.10;81.30;100509.78;5055271;28;45483;-74
2022/04/05 08:22:08;;;;;;;;;16.75;10.50;;;;;10.16;81.26;100520.25;5053108;28;45604;-73
2022/04/05 08:24:34;;;;;;;;;6.75;4.50;;;;;10.19;81.67;100512.25;5056042;28;45289;-75
2022/04/05 08:27:00;;;;;;;;;7.25;7.25;;;;;10.11;81.20;100512.41;5055073;28;45569;-74
2022/04/05 08:29:25;;;;;;;;;6.50;5.50;;;;;10.20;81.36;100523.69;5066858;28;45611;-74
2022/04/05 08:31:51;;;;;;;;;9.50;7.50;;;;;10.20;81.36;100523.69;5054503;28;46207;-73
2022/04/05 08:34:16;;;;;;;;;12.50;7.75;;;;;10.15;81.62;100507.94;5054762;28;45360;-74
2022/04/05 08:36:42;;;;;;;;;4.00;4.00;;;;;10.25;81.33;100522.69;5054067;28;45483;-74
2022/04/05 08:39:07;;;;;;;;;5.25;4.00;;;;;10.27;81.24;100520.88;5054457;28;45505;-75
2022/04/05 08:41:35;;;;;;;;;4.00;4.00;;;;;10.25;81.73;100512.13;5054878;28;45894;-74
2022/04/05 08:44:01;;;;;;;;;12.25;7.00;;;;;10.32;81.78;100515.50;5054761;28;45682;-73
2022/04/05 08:46:36;;;;;;;;;5.00;5.00;;;;;10.33;81.58;100514.66;5055092;28;45515;-74
2022/04/05 08:49:03;;;;;;;;;8.00;8.00;;;;;10.38;81.70;100512.78;5048595;28;45254;-74
2022/04/05 08:51:30;;;;;;;;;11.00;9.50;;;;;10.46;81.93;100517.91;5036656;28;46374;-76
2022/04/05 08:53:56;;;;;;;;;9.75;8.50;;;;;10.51;82.05;100524.00;5058818;28;45510;-75
2022/04/05 08:56:26;;;;;;;;;8.50;8.25;;;;;10.49;81.70;100518.72;5055034;28;45600;-75
2022/04/05 08:58:52;;;;;;;;;8.00;4.00;;;;;10.57;81.43;100517.72;5055393;28;45489;-75
2022/04/05 09:01:18;;;;;;;;;10.00;10.00;;;;;10.58;81.18;100516.78;5053287;28;46348;-75
2022/04/05 09:03:43;;;;;;;;;7.75;7.75;;;;;10.60;81.35;100510.59;5038427;28;45430;-76
2022/04/05 09:06:28;;;;;;;;;8.25;7.00;;;;;10.68;81.37;100514.84;5056398;28;45450;-80
2022/04/05 09:09:07;;;;;;;;;7.50;5.50;;;;;10.68;81.00;100510.41;5057074;28;45427;-79
2022/04/05 09:11:33;;;;;;;;;9.75;8.00;;;;;10.72;81.10;100512.09;5038379;28;45593;-79
2022/04/05 09:14:01;;;;;;;;;7.75;7.75;;;;;10.74;80.41;100498.84;5060776;28;45582;-80
2022/04/05 09:16:32;;;;;;;;;15.00;9.75;;;;;10.79;80.75;100510.19;5038882;28;45589;-80
2022/04/05 09:19:00;;;;;;;;;4.75;4.50;;;;;10.81;80.43;100517.19;5059759;28;45532;-78
2022/04/05 09:21:26;;;;;;;;;10.25;7.00;;;;;10.89;80.30;100511.72;5059872;28;45375;-80
2022/04/05 09:23:52;;;;;;;;;10.00;8.00;;;;;10.84;80.28;100505.66;5055699;28;45490;-80
2022/04/05 09:26:19;;;;;;;;;4.75;4.75;;;;;10.92;80.29;100511.66;5037229;28;45474;-81
2022/04/05 09:28:50;;;;;;;;;8.25;6.00;;;;;10.96;80.16;100509.78;5055710;28;45558;-82
2022/04/05 09:31:22;;;;;;;;;10.00;9.50;;;;;10.99;79.96;100505.31;5035998;28;47071;-80
2022/04/05 09:34:04;;;;;;;;;10.75;7.50;;;;;11.08;79.64;100508.66;5055008;28;45470;-80
2022/04/05 09:36:50;;;;;;;;;9.25;9.25;;;;;11.08;79.33;100512.16;5047683;28;45505;-81
2022/04/05 09:39:25;;;;;;;;;8.00;7.00;;;;;11.09;79.48;100520.97;5034309;28;45460;-75
2022/04/05 09:42:05;;;;;;;;;11.50;9.00;;;;;11.13;79.92;100520.88;5053771;28;46157;-80
2022/04/05 09:44:38;;;;;;;;;11.50;9.00;;;;;11.19;80.00;100526.03;5054404;28;45343;-79
2022/04/05 09:47:06;;;;;;;;;7.75;7.25;;;;;11.32;79.94;100517.78;5066209;28;45478;-79
2022/04/05 09:49:37;;;;;;;;;9.50;5.50;;;;;11.31;78.98;100519.59;5069206;28;45418;-80
2022/04/05 09:52:20;;;;;;;;;11.00;11.00;;;;;11.41;79.45;100528.16;5056232;28;46328;-79
2022/04/05 09:54:46;;;;;;;;;9.50;4.50;;;;;11.42;79.42;100514.03;5030212;28;45760;-80
2022/04/05 09:57:11;;;;;;;;;10.25;6.75;;;;;11.52;79.11;100520.84;5035154;28;45517;-76
2022/04/05 09:59:42;;;;;;;;;12.00;8.50;;;;;11.56;79.00;100516.31;5053015;28;45564;-74
2022/04/05 10:02:14;;;;;;;;;8.50;8.50;;;;;11.60;78.60;100506.53;5033556;28;47825;-76
2022/04/05 10:05:05;;;;;;;;;13.25;5.00;;;;;11.69;78.51;100506.28;5051679;28;45722;-75
2022/04/05 10:07:31;;;;;;;;;7.50;6.00;;;;;11.70;78.29;100514.19;5045674;28;45488;-75
2022/04/05 10:10:03;;;;;;;;;8.50;7.75;;;;;11.80;78.46;100514.84;5052690;28;45584;-74
2022/04/05 10:12:28;;;;;;;;;9.25;9.25;;;;;11.85;77.52;100501.47;5052083;28;45415;-76
2022/04/05 10:14:55;;;;;;;;;12.50;6.00;;;;;11.96;77.43;100509.16;5050488;28;45470;-75
2022/04/05 10:17:26;;;;;;;;;10.50;10.00;;;;;11.87;77.43;100489.94;5046215;28;45525;-75
2022/04/05 10:19:54;;;;;;;;;11.00;9.00;;;;;12.01;77.00;100513.44;5032778;28;45907;-80
2022/04/05 10:22:23;;;;;;;;;10.50;6.50;;;;;12.06;76.75;100513.31;5051361;28;45503;-80
2022/04/05 10:24:52;;;;;;;;;10.00;8.00;;;;;12.12;76.48;100509.63;5046768;28;45497;-82
2022/04/05 10:27:18;;;;;;;;;7.00;7.00;;;;;12.14;76.38;100518.41;5065940;27;45483;-76
2022/04/05 10:29:45;;;;;;;;;6.25;4.75;;;;;12.11;76.46;100508.75;5053432;28;45616;-77
2022/04/05 10:32:36;;;;;;;;;5.00;5.00;;;;;12.16;76.63;100505.97;5054843;28;45442;-76
2022/04/05 10:35:08;;;;;;;;;5.50;4.25;;;;;12.14;76.76;100511.31;5049788;28;45408;-76
2022/04/05 10:37:37;;;;;;;;;7.75;4.75;;;;;12.11;76.27;100513.19;5035636;28;45580;-76
2022/04/05 10:40:03;;;;;;;;;7.25;7.25;;;;;12.07;76.51;100507.06;5049619;28;45676;-81
2022/04/05 10:42:37;;;;;;;;;9.25;6.00;;;;;12.01;76.80;100501.94;5057134;28;45567;-81
2022/04/05 10:45:29;;;;;;;;;7.00;7.00;;;;;12.00;76.86;100508.19;5060155;28;45611;-81
2022/04/05 10:48:12;;;;;;;;;8.50;8.50;;;;;11.97;77.33;100508.25;5058358;28;45441;-77
2022/04/05 10:50:43;;;;;;;;;3.50;3.50;;;;;11.97;77.18;100510.91;5059032;28;45343;-80
2022/04/05 10:53:20;;;;;;;;;26.00;21.50;;;;;12.04;76.93;100512.47;5054117;28;46373;-81
2022/04/05 10:56:08;;;;;;;;;7.00;4.00;;;;;12.12;76.84;100507.84;5047009;28;45427;-81
2022/04/05 10:59:01;;;;;;;;;8.67;7.33;;;;;12.05;76.38;100488.56;5053448;28;45440;-74
2022/04/05 11:01:43;;;;;;;;;8.75;7.00;;;;;12.14;76.11;100500.72;5042684;28;45788;-76
2022/04/05 11:07:05;;;;;;;;;10.00;5.50;;;;;12.15;76.51;100489.22;5052160;28;45502;-75
2022/04/05 11:09:54;;;;;;;;;4.00;4.00;;;;;12.20;76.71;100489.94;5052470;28;45505;-76
2022/04/05 11:12:23;;;;;;;;;10.50;6.75;;;;;12.23;76.67;100491.63;5051348;28;45457;-77
2022/04/05 11:14:54;;;;;;;;;7.25;5.00;;;;;12.19;76.39;100496.16;5055563;28;45965;-77
2022/04/05 11:17:21;;;;;;;;;7.00;4.00;;;;;12.27;76.98;100485.34;5052170;28;45498;-73
2022/04/05 11:19:52;;;;;;;;;5.50;4.00;;;;;12.31;76.45;100491.41;5052994;28;45398;-76
2022/04/05 11:22:20;;;;;;;;;5.50;4.25;;;;;12.30;76.75;100487.03;5055296;28;45502;-76
2022/04/05 11:24:56;;;;;;;;;9.50;5.50;;;;;12.37;76.18;100485.94;5052800;28;45484;-76
2022/04/05 11:27:28;;;;;;;;;5.50;5.50;;;;;12.46;76.29;100493.63;5056575;28;45577;-76
2022/04/05 11:30:21;;;;;;;;;9.00;7.00;;;;;12.47;75.68;100473.31;5057131;28;45607;-75
2022/04/05 11:33:09;;;;;;;;;6.75;4.75;;;;;12.55;75.87;100493.34;5065518;28;45589;-79
2022/04/05 11:35:37;;;;;;;;;8.25;5.50;;;;;12.49;76.14;100482.06;5059174;28;47021;-80